Time;durP1;ratioP1;P1;durP2;ratioP2;P2;SDS_P1;SDS_P2;PMS_P1;PMS_P2;Temp;Humidity;BMP_temperature;BMP_pressure;BME280_temperature;BME280_humidity;BME280_pressure;Samples;Min_cycle;Max_cycle;Signal;HPM_P1;HPM_P2
2023/04/20 00:08:17;;;;;;;30.80;26.40;;;;;;;5.48;100.00;99749.56;436374;1250;140882;-67
2023/04/20 00:18:23;;;;;;;33.10;25.40;;;;;;;5.53;100.00;99748.33;436476;1250;140635;-69
2023/04/20 00:28:29;;;;;;;37.10;28.70;;;;;;;5.52;100.00;99750.83;436262;1250;139390;-69
2023/04/20 00:38:35;;;;;;;39.40;30.60;;;;;;;5.54;100.00;99747.27;436549;1252;141287;-68
2023/04/20 00:48:41;;;;;;;42.10;32.00;;;;;;;5.58;100.00;99746.55;436279;1250;138921;-68
2023/04/20 00:58:47;;;;;;;39.10;31.90;;;;;;;5.62;100.00;99751.26;436284;1250;140489;-68
2023/04/20 01:08:53;;;;;;;46.40;36.20;;;;;;;5.72;100.00;99751.39;436366;1254;140417;-68
2023/04/20 01:18:59;;;;;;;48.70;35.60;;;;;;;5.81;100.00;99752.23;436834;1251;140433;-70
2023/04/20 01:29:05;;;;;;;50.30;38.10;;;;;;;5.83;100.00;99745.91;437152;1250;140361;-67
2023/04/20 01:39:13;;;;;;;45.60;34.30;;;;;;;5.86;100.00;99750.80;436575;1251;140891;-69
2023/04/20 01:49:19;;;;;;;49.60;36.30;;;;;;;5.89;100.00;99748.09;437150;1250;139150;-68
2023/04/20 01:59:25;;;;;;;45.30;34.20;;;;;;;5.92;100.00;99739.61;436592;1251;142252;-69
2023/04/20 02:09:31;;;;;;;49.40;36.30;;;;;;;5.95;100.00;99746.45;436354;1250;140703;-68
2023/04/20 02:19:36;;;;;;;46.70;36.60;;;;;;;5.95;100.00;99747.48;436397;1251;141064;-67
2023/04/20 02:29:42;;;;;;;45.50;35.00;;;;;;;5.87;100.00;99745.54;436813;1255;139453;-68
2023/04/20 02:39:48;;;;;;;48.00;33.60;;;;;;;5.72;100.00;99744.95;436693;1250;139387;-67
2023/04/20 02:49:54;;;;;;;45.00;34.00;;;;;;;5.59;100.00;99748.77;436252;1256;140735;-67
2023/04/20 03:00:00;;;;;;;53.10;35.70;;;;;;;5.50;100.00;99751.23;436467;1251;138753;-69
2023/04/20 03:10:08;;;;;;;46.70;36.50;;;;;;;5.49;100.00;99748.84;436632;1250;139312;-67
2023/04/20 03:20:15;;;;;;;47.30;38.10;;;;;;;5.47;100.00;99748.23;436350;1250;141024;-67
2023/04/20 03:30:21;;;;;;;40.20;32.10;;;;;;;5.36;100.00;99753.69;436368;1250;139015;-69
2023/04/20 03:40:27;;;;;;;44.00;33.10;;;;;;;5.15;100.00;99763.02;435947;1254;139766;-68
2023/04/20 03:50:33;;;;;;;40.30;32.40;;;;;;;5.01;100.00;99768.75;436181;1250;139834;-67
2023/04/20 04:00:39;;;;;;;37.40;29.90;;;;;;;4.92;100.00;99771.70;436250;1250;141306;-69
2023/04/20 04:10:44;;;;;;;35.90;28.80;;;;;;;4.92;100.00;99768.23;435993;1256;139406;-67
2023/04/20 04:20:50;;;;;;;34.40;29.00;;;;;;;5.06;100.00;99769.27;436264;1251;139278;-68
2023/04/20 04:30:56;;;;;;;32.30;26.10;;;;;;;5.43;100.00;99769.58;436306;1255;139544;-68
2023/04/20 04:41:02;;;;;;;31.60;26.90;;;;;;;6.20;100.00;99767.31;435863;1251;140611;-68
2023/04/20 04:51:08;;;;;;;27.30;23.70;;;;;;;6.99;100.00;99770.95;437066;1250;140641;-68
2023/04/20 05:01:14;;;;;;;26.30;22.80;;;;;;;7.85;100.00;99772.44;436189;1251;140812;-69
2023/04/20 05:11:20;;;;;;;23.30;20.80;;;;;;;9.17;100.00;99777.70;436508;1250;139232;-68
2023/04/20 05:21:27;;;;;;;16.40;14.60;;;;;;;12.19;100.00;99778.98;436577;1250;141897;-70
2023/04/20 05:31:33;;;;;;;10.30;9.20;;;;;;;19.26;97.27;99775.71;436624;1255;139907;-69
2023/04/20 05:41:39;;;;;;;9.20;7.50;;;;;;;21.51;82.99;99785.46;436496;1251;138967;-68
2023/04/20 05:51:45;;;;;;;9.10;8.20;;;;;;;18.03;78.49;99791.81;435499;1256;139900;-68
2023/04/20 06:01:51;;;;;;;8.80;7.90;;;;;;;18.34;78.14;99797.99;436102;1251;138617;-69
2023/04/20 06:11:57;;;;;;;9.10;7.40;;;;;;;20.20;75.52;99798.27;436327;1256;139123;-70
2023/04/20 06:22:07;;;;;;;8.70;7.30;;;;;;;21.16;70.68;99806.85;436016;1251;139368;-70
2023/04/20 06:32:13;;;;;;;7.20;6.00;;;;;;;21.65;67.83;99807.79;436533;1254;138969;-69
2023/04/20 06:42:19;;;;;;;6.10;5.40;;;;;;;22.99;61.51;99805.11;436298;1256;138237;-69
2023/04/20 06:52:25;;;;;;;8.30;6.10;;;;;;;20.18;54.18;99814.80;436401;1251;139303;-68
2023/04/20 07:02:41;;;;;;;6.90;5.30;;;;;;;16.60;55.44;99826.27;436316;1254;139874;-67
2023/04/20 07:12:47;;;;;;;6.10;5.40;;;;;;;14.34;57.59;99834.44;436043;1255;427579;-69
2023/04/20 07:22:53;;;;;;;8.80;5.60;;;;;;;13.68;60.20;99837.92;436187;1251;138738;-67
2023/04/20 07:32:59;;;;;;;6.60;5.90;;;;;;;13.76;60.78;99839.97;436239;1255;140956;-69
2023/04/20 07:43:05;;;;;;;10.60;5.80;;;;;;;13.96;60.79;99842.94;436517;1251;138740;-68
2023/04/20 07:53:13;;;;;;;6.10;4.20;;;;;;;14.20;61.17;99847.09;436426;1251;138696;-68
2023/04/20 08:03:19;;;;;;;10.00;5.00;;;;;;;15.23;59.61;99848.23;436427;1255;138679;-68
2023/04/20 08:13:26;;;;;;;5.40;4.40;;;;;;;15.91;58.26;99850.09;436301;1251;138456;-69
2023/04/20 08:23:32;;;;;;;6.90;4.50;;;;;;;16.65;56.89;99850.00;436421;1255;138885;-67
2023/04/20 08:33:38;;;;;;;8.60;4.40;;;;;;;18.01;56.06;99851.34;436533;1256;138447;-69
2023/04/20 08:43:45;;;;;;;11.40;3.50;;;;;;;18.60;53.90;99856.09;436865;1256;138131;-68
2023/04/20 08:53:51;;;;;;;10.80;5.20;;;;;;;18.14;52.26;99860.83;436906;1251;138555;-67
2023/04/20 09:03:58;;;;;;;12.40;5.30;;;;;;;17.31;53.37;99856.52;436379;1255;139215;-67
2023/04/20 09:14:08;;;;;;;8.40;4.20;;;;;;;17.12;54.21;99858.39;436463;1254;138929;-69
2023/04/20 09:24:15;;;;;;;11.70;3.60;;;;;;;17.27;54.30;99860.11;436379;1255;139691;-69
2023/04/20 09:34:24;;;;;;;10.30;3.90;;;;;;;17.20;53.27;99864.41;436487;1251;138199;-68
2023/04/20 09:44:32;;;;;;;11.60;5.60;;;;;;;17.25;54.07;99873.02;436637;1256;139163;-69
2023/04/20 09:54:39;;;;;;;10.10;4.40;;;;;;;17.24;53.51;99875.59;436992;1255;138189;-68
2023/04/20 10:04:55;;;;;;;10.90;4.80;;;;;;;16.56;54.30;99866.64;436343;1256;139380;-68
2023/04/20 10:15:01;;;;;;;9.20;4.20;;;;;;;16.91;54.43;99866.99;436926;1256;139122;-68
2023/04/20 10:25:18;;;;;;;13.70;5.30;;;;;;;16.93;54.43;99851.98;436397;1255;139325;-68
2023/04/20 10:35:24;;;;;;;12.80;3.90;;;;;;;16.76;54.31;99840.35;436722;1257;139225;-68
2023/04/20 10:45:37;;;;;;;9.90;3.80;;;;;;;16.97;54.39;99832.21;436696;1257;139846;-68
2023/04/20 10:55:43;;;;;;;10.40;3.50;;;;;;;17.15;54.23;99822.70;436140;1256;139446;-67
2023/04/20 11:05:51;;;;;;;8.00;2.60;;;;;;;16.84;52.59;99825.21;436735;1257;138727;-67
2023/04/20 11:15:57;;;;;;;13.90;3.70;;;;;;;16.98;52.28;99828.12;436667;1255;139259;-68
2023/04/20 11:26:03;;;;;;;9.10;3.30;;;;;;;16.66;51.84;99833.14;436305;1255;140538;-67
2023/04/20 11:36:20;;;;;;;6.80;3.20;;;;;;;16.18;51.79;99835.71;436347;1257;138628;-68
2023/04/20 11:46:26;;;;;;;10.00;3.90;;;;;;;15.99;52.85;99838.84;436309;1251;138234;-69
2023/04/20 11:56:32;;;;;;;16.50;4.30;;;;;;;15.79;52.35;99840.27;436384;1255;139101;-68
2023/04/20 12:06:37;;;;;;;10.90;4.00;;;;;;;15.81;52.97;99838.20;436898;1257;138348;-69
2023/04/20 12:16:43;;;;;;;16.00;4.20;;;;;;;16.29;52.55;99839.08;436287;1251;138927;-67
2023/04/20 12:26:49;;;;;;;10.90;3.60;;;;;;;16.73;51.49;99834.62;436214;1256;139581;-68
2023/04/20 12:36:54;;;;;;;14.90;4.60;;;;;;;17.15;51.69;99827.50;436548;1251;138841;-67
2023/04/20 12:47:00;;;;;;;7.90;3.80;;;;;;;17.35;50.76;99820.61;436201;1255;138340;-69
2023/04/20 12:57:06;;;;;;;11.20;3.70;;;;;;;17.69;50.24;99814.18;436644;1255;138793;-68
2023/04/20 13:07:12;;;;;;;6.70;2.90;;;;;;;17.64;49.59;99807.62;436598;1255;138161;-67
2023/04/20 13:17:18;;;;;;;16.10;4.10;;;;;;;17.25;49.12;99807.85;436209;1254;138093;-67
2023/04/20 13:27:24;;;;;;;9.40;2.90;;;;;;;16.93;49.58;99799.67;436569;1256;140247;-70
2023/04/20 13:37:31;;;;;;;13.60;3.50;;;;;;;16.88;49.50;99795.51;436367;1251;140088;-67
2023/04/20 13:47:38;;;;;;;6.90;2.40;;;;;;;16.35;50.05;99795.95;436712;1256;138815;-67
2023/04/20 13:57:44;;;;;;;11.10;3.10;;;;;;;15.89;50.73;99797.85;436231;1251;139696;-66
2023/04/20 14:07:50;;;;;;;11.30;3.40;;;;;;;15.90;49.96;99794.23;436254;1251;140225;-67
2023/04/20 14:17:56;;;;;;;10.00;3.30;;;;;;;16.03;49.81;99788.25;436285;1255;138628;-68
2023/04/20 14:28:01;;;;;;;12.20;2.90;;;;;;;16.35;50.14;99782.35;436040;1250;139804;-68
2023/04/20 14:38:07;;;;;;;10.20;3.10;;;;;;;16.54;49.37;99772.77;436412;1256;139372;-67
2023/04/20 14:48:14;;;;;;;7.40;3.60;;;;;;;16.75;48.67;99765.66;436046;1254;138127;-67
2023/04/20 14:58:20;;;;;;;6.40;2.30;;;;;;;16.83;48.61;99766.61;435671;1251;139760;-68
2023/04/20 15:08:26;;;;;;;7.90;2.50;;;;;;;17.19;47.79;99770.52;436342;1256;138725;-67
2023/04/20 15:18:32;;;;;;;7.10;2.70;;;;;;;17.37;46.35;99769.17;436236;1256;139045;-65
2023/04/20 15:28:38;;;;;;;8.50;3.10;;;;;;;17.08;45.05;99773.11;436021;1251;138573;-67
2023/04/20 15:38:44;;;;;;;4.00;2.70;;;;;;;16.73;45.52;99768.54;436020;1251;139890;-66
2023/04/20 15:48:49;;;;;;;12.70;3.30;;;;;;;16.57;46.20;99762.30;436273;1251;140634;-67
2023/04/20 15:58:55;;;;;;;6.00;2.60;;;;;;;16.14;46.28;99764.49;435853;1251;139275;-65
2023/04/20 16:09:01;;;;;;;11.30;3.10;;;;;;;15.90;46.66;99757.71;435282;1251;140110;-67
2023/04/20 16:19:07;;;;;;;7.30;3.20;;;;;;;16.05;46.77;99751.88;435825;1251;139030;-67
2023/04/20 16:29:12;;;;;;;9.00;2.70;;;;;;;16.17;46.90;99748.52;435814;1254;139986;-68
2023/04/20 16:39:18;;;;;;;5.80;3.20;;;;;;;16.09;47.04;99750.80;436408;1251;139874;-67
2023/04/20 16:49:24;;;;;;;7.30;2.20;;;;;;;15.84;47.01;99749.88;436007;1254;140122;-68
2023/04/20 16:59:30;;;;;;;7.80;2.50;;;;;;;15.49;46.90;99757.29;436919;1253;138525;-67
2023/04/20 17:09:36;;;;;;;7.00;2.50;;;;;;;15.33;46.90;99760.16;436531;1251;138358;-68
2023/04/20 17:19:42;;;;;;;10.70;3.90;;;;;;;15.20;47.09;99761.38;437025;1251;140227;-66
2023/04/20 17:29:48;;;;;;;8.00;3.90;;;;;;;14.87;47.59;99766.15;437170;1250;138679;-68
2023/04/20 17:39:53;;;;;;;8.90;5.70;;;;;;;14.55;47.97;99768.55;436667;1255;138513;-68
2023/04/20 17:49:59;;;;;;;6.80;4.10;;;;;;;14.27;48.58;99772.46;436347;1255;138940;-67
2023/04/20 18:00:07;;;;;;;13.70;8.70;;;;;;;14.01;49.28;99774.13;436679;1251;138134;-67
2023/04/20 18:10:14;;;;;;;17.80;9.20;;;;;;;13.76;49.85;99776.98;436514;1251;139270;-66
2023/04/20 18:20:20;;;;;;;9.50;4.60;;;;;;;13.69;49.63;99787.01;436742;1251;139542;-67
2023/04/20 18:30:26;;;;;;;5.60;4.10;;;;;;;13.63;48.67;99790.95;437033;1250;138232;-68
2023/04/20 18:40:32;;;;;;;6.30;3.40;;;;;;;13.49;48.56;99796.34;437003;1251;139201;-67
2023/04/20 18:50:38;;;;;;;9.30;4.80;;;;;;;13.41;48.24;99792.70;436722;1254;138494;-66
2023/04/20 19:00:44;;;;;;;6.30;4.40;;;;;;;13.37;47.99;99795.95;436213;1253;138683;-65
2023/04/20 19:10:55;;;;;;;9.50;5.10;;;;;;;13.24;47.89;99798.27;436036;1251;139411;-60
2023/04/20 19:21:00;;;;;;;12.10;7.00;;;;;;;13.24;47.69;99805.54;438939;1251;139062;-61
2023/04/20 19:31:08;;;;;;;8.30;6.70;;;;;;;13.16;47.51;99805.05;436608;1255;139341;-61
2023/04/20 19:41:14;;;;;;;8.60;6.60;;;;;;;12.81;47.91;99804.98;436432;1251;139507;-62
2023/04/20 19:51:21;;;;;;;16.20;9.20;;;;;;;12.57;48.30;99808.60;436649;1253;138588;-60
2023/04/20 20:01:27;;;;;;;14.70;10.30;;;;;;;12.32;48.35;99817.11;436581;1251;138446;-59
2023/04/20 20:11:33;;;;;;;13.50;12.10;;;;;;;12.14;48.67;99818.13;436838;1253;138690;-60
2023/04/20 20:21:38;;;;;;;11.70;8.20;;;;;;;11.90;48.93;99814.77;436976;1254;138757;-61
2023/04/20 20:31:44;;;;;;;15.30;9.90;;;;;;;11.63;49.23;99810.59;436623;1251;139591;-60
2023/04/20 20:41:52;;;;;;;14.20;8.40;;;;;;;11.42;49.51;99806.13;436539;1254;139965;-60
2023/04/20 20:51:57;;;;;;;7.00;5.60;;;;;;;11.30;49.51;99805.64;436175;1255;139699;-61
2023/04/20 21:02:03;;;;;;;8.20;6.70;;;;;;;11.36;49.41;99807.91;436422;1251;140585;-61
2023/04/20 21:12:09;;;;;;;8.80;6.30;;;;;;;11.35;49.39;99810.06;437047;1251;138252;-59
2023/04/20 21:22:16;;;;;;;9.80;6.60;;;;;;;11.27;49.31;99809.66;436501;1250;139569;-60
2023/04/20 21:32:22;;;;;;;9.80;6.00;;;;;;;11.24;49.30;99814.59;436658;1254;139776;-60
2023/04/20 21:42:28;;;;;;;7.80;6.00;;;;;;;11.11;49.47;99819.80;437010;1251;138955;-60
2023/04/20 21:52:34;;;;;;;7.60;6.20;;;;;;;11.05;49.65;99820.52;436075;1250;139269;-59
2023/04/20 22:02:40;;;;;;;10.30;6.70;;;;;;;10.91;49.87;99821.70;436332;1250;140354;-59
2023/04/20 22:12:46;;;;;;;7.80;6.60;;;;;;;10.83;50.10;99816.42;436504;1254;139885;-65
2023/04/20 22:22:52;;;;;;;7.30;6.00;;;;;;;10.70;50.36;99819.84;436092;1255;139313;-60
2023/04/20 22:32:58;;;;;;;12.30;8.20;;;;;;;10.55;50.65;99821.98;436161;1250;139229;-59
2023/04/20 22:43:04;;;;;;;7.80;7.00;;;;;;;10.44;50.90;99828.21;435994;1254;138623;-60
2023/04/20 22:53:12;;;;;;;11.70;6.90;;;;;;;10.31;51.10;99831.23;435987;1256;139404;-60
2023/04/20 23:03:18;;;;;;;10.80;8.10;;;;;;;10.23;51.34;99834.80;436077;1256;139884;-59
2023/04/20 23:13:25;;;;;;;9.80;8.50;;;;;;;10.22;51.43;99833.83;436098;1250;139695;-60
2023/04/20 23:23:31;;;;;;;9.70;7.50;;;;;;;10.18;51.55;99832.33;435982;1250;138076;-60
2023/04/20 23:33:36;;;;;;;10.40;7.30;;;;;;;10.04;52.11;99835.04;435940;1255;138439;-60
2023/04/20 23:43:43;;;;;;;10.00;8.20;;;;;;;9.94;52.56;99828.77;436858;1251;138833;-60
2023/04/20 23:53:49;;;;;;;9.70;8.30;;;;;;;9.81;52.76;99820.98;436672;1250;140059;-59
